createdAt,value
2022-08-19T00:01:53.265Z,25.21
2022-08-19T00:04:25.408Z,25.17
2022-08-19T00:06:53.918Z,25.15
2022-08-19T00:09:24.139Z,25.18
2022-08-19T00:11:52.635Z,25.24
2022-08-19T00:14:21.755Z,25.29
2022-08-19T00:16:52.541Z,25.34
2022-08-19T00:19:19.943Z,25.35
2022-08-19T00:21:47.878Z,25.35
2022-08-19T00:24:16.397Z,25.39
2022-08-19T00:26:46.492Z,25.35
2022-08-19T00:29:18.694Z,25.32
2022-08-19T00:31:47.219Z,25.29
2022-08-19T00:34:16.842Z,25.24
2022-08-19T00:36:45.229Z,25.20
2022-08-19T00:39:13.739Z,25.17
2022-08-19T00:41:41.969Z,25.13
2022-08-19T00:44:13.680Z,25.14
2022-08-19T00:46:45.670Z,25.13
2022-08-19T00:49:30.307Z,25.11
2022-08-19T00:52:09.764Z,25.11
2022-08-19T00:54:40.065Z,25.12
2022-08-19T00:57:15.997Z,25.18
2022-08-19T01:00:00.365Z,25.25
2022-08-19T01:02:31.957Z,25.34
2022-08-19T01:05:02.452Z,25.38
2022-08-19T01:07:37.999Z,25.38
2022-08-19T01:10:11.212Z,25.37
2022-08-19T01:12:38.896Z,25.34
2022-08-19T01:15:10.616Z,25.31
2022-08-19T01:17:40.747Z,25.31
2022-08-19T01:20:14.544Z,25.27
2022-08-19T01:22:47.764Z,25.21
2022-08-19T01:25:17.325Z,25.20
2022-08-19T01:27:53.571Z,25.17
2022-08-19T01:30:27.346Z,25.13
2022-08-19T01:32:56.190Z,25.12
2022-08-19T01:35:25.998Z,25.09
2022-08-19T01:37:58.543Z,25.04
2022-08-19T01:40:31.716Z,25.02
2022-08-19T01:43:00.540Z,24.99
2022-08-19T01:45:31.029Z,24.98
2022-08-19T01:48:02.085Z,24.96
2022-08-19T01:50:31.376Z,24.94
2022-08-19T01:53:02.362Z,24.92
2022-08-19T01:55:41.327Z,24.92
2022-08-19T01:58:14.387Z,24.91
2022-08-19T02:00:43.215Z,24.91
2022-08-19T02:03:12.179Z,24.96
2022-08-19T02:05:40.413Z,25.02
2022-08-19T02:08:10.297Z,25.02
2022-08-19T02:10:42.362Z,25.01
2022-08-19T02:13:10.077Z,24.98
2022-08-19T02:15:38.649Z,24.95
2022-08-19T02:18:07.324Z,24.92
2022-08-19T02:20:34.921Z,24.89
2022-08-19T02:23:02.356Z,24.87
2022-08-19T02:25:31.230Z,24.83
2022-08-19T02:27:58.876Z,24.79
2022-08-19T02:30:26.480Z,24.78
2022-08-19T02:32:54.219Z,24.80
2022-08-19T02:35:22.292Z,24.85
2022-08-19T02:38:08.165Z,24.87
2022-08-19T02:40:37.200Z,24.87
2022-08-19T02:43:08.501Z,24.86
2022-08-19T02:45:40.552Z,24.84
2022-08-19T02:48:14.867Z,24.84
2022-08-19T02:50:56.366Z,24.81
2022-08-19T02:53:27.062Z,24.80
2022-08-19T02:55:56.338Z,24.79
2022-08-19T02:58:25.043Z,24.80
2022-08-19T03:00:56.118Z,24.78
2022-08-19T03:03:24.468Z,24.80
2022-08-19T03:05:57.187Z,24.80
2022-08-19T03:08:26.827Z,24.84
2022-08-19T03:10:55.733Z,24.87
2022-08-19T03:13:24.316Z,24.91
2022-08-19T03:15:51.810Z,24.94
2022-08-19T03:18:19.256Z,24.99
2022-08-19T03:20:50.021Z,25.01
2022-08-19T03:23:18.496Z,25.04
2022-08-19T03:26:02.793Z,25.06
2022-08-19T03:28:38.586Z,25.09
2022-08-19T03:31:43.936Z,25.15
2022-08-19T03:33:59.941Z,25.24
2022-08-19T03:36:28.653Z,25.28
2022-08-19T03:39:00.184Z,25.25
2022-08-19T03:41:34.292Z,25.19
2022-08-19T03:44:17.646Z,25.12
2022-08-19T03:46:47.512Z,25.09
2022-08-19T03:49:15.623Z,25.10
2022-08-19T03:51:47.099Z,25.09
2022-08-19T03:54:16.915Z,25.11
2022-08-19T03:56:46.814Z,25.08
2022-08-19T03:59:19.676Z,25.08
2022-08-19T04:01:47.163Z,25.08
2022-08-19T04:04:14.535Z,25.10
2022-08-19T04:06:42.157Z,25.12
2022-08-19T04:09:12.225Z,25.15
2022-08-19T04:11:44.805Z,25.19
2022-08-19T04:14:17.557Z,25.22
2022-08-19T04:16:46.127Z,25.23
2022-08-19T04:19:16.031Z,25.24
2022-08-19T04:21:46.094Z,25.18
2022-08-19T04:24:14.732Z,25.10
2022-08-19T04:26:42.677Z,24.99
2022-08-19T04:29:13.926Z,24.91
2022-08-19T04:31:46.201Z,24.81
2022-08-19T04:34:17.925Z,24.73
2022-08-19T04:36:46.655Z,24.67
2022-08-19T04:39:17.311Z,24.61
2022-08-19T04:42:04.088Z,24.59
2022-08-19T04:44:33.207Z,24.53
2022-08-19T04:47:11.300Z,24.47
2022-08-19T04:49:39.117Z,24.37
2022-08-19T04:52:06.570Z,24.30
2022-08-19T04:54:38.574Z,24.20
2022-08-19T04:57:10.696Z,24.13
2022-08-19T04:59:40.157Z,24.09
2022-08-19T05:02:10.514Z,24.09
2022-08-19T05:04:40.336Z,24.03
2022-08-19T05:07:09.247Z,24.02
2022-08-19T05:09:58.100Z,24.01
2022-08-19T05:12:28.980Z,23.99
2022-08-19T05:14:58.421Z,24.00
2022-08-19T05:17:31.320Z,23.99
2022-08-19T05:20:19.820Z,23.98
2022-08-19T05:22:49.006Z,24.01
2022-08-19T05:25:20.602Z,24.03
2022-08-19T05:27:49.258Z,24.05
2022-08-19T05:30:18.550Z,24.02
2022-08-19T05:32:49.087Z,24.00
2022-08-19T05:35:16.447Z,24.01
2022-08-19T05:37:43.802Z,24.04
2022-08-19T05:40:12.123Z,24.14
2022-08-19T05:42:39.799Z,24.26
2022-08-19T05:45:09.116Z,24.34
2022-08-19T05:47:42.108Z,24.33
2022-08-19T05:50:11.552Z,24.31
2022-08-19T05:52:45.846Z,24.28
2022-08-19T05:55:18.203Z,24.21
2022-08-19T05:57:45.497Z,24.15
2022-08-19T06:00:14.595Z,24.14
2022-08-19T06:02:42.469Z,24.16
2022-08-19T06:05:12.451Z,24.19
2022-08-19T06:07:40.903Z,24.25
2022-08-19T06:10:12.400Z,24.34
2022-08-19T06:12:40.454Z,24.48
2022-08-19T06:15:11.514Z,24.60
2022-08-19T06:17:39.258Z,24.73
2022-08-19T06:20:13.065Z,24.79
2022-08-19T06:22:42.852Z,24.81
2022-08-19T06:25:11.698Z,24.82
2022-08-19T06:27:58.598Z,24.81
2022-08-19T06:30:28.236Z,24.77
2022-08-19T06:32:55.552Z,24.76
2022-08-19T06:35:24.401Z,24.77
2022-08-19T06:37:51.901Z,24.79
2022-08-19T06:40:19.470Z,24.80
2022-08-19T06:42:54.532Z,24.82
2022-08-19T06:45:24.520Z,24.92
2022-08-19T06:47:56.803Z,25.02
2022-08-19T06:50:26.030Z,25.13
2022-08-19T06:52:53.705Z,25.20
2022-08-19T06:55:21.449Z,25.24
2022-08-19T06:57:49.112Z,25.25
2022-08-19T07:00:19.291Z,25.23
2022-08-19T07:02:52.148Z,25.29
2022-08-19T07:05:26.216Z,25.35
2022-08-19T07:07:53.554Z,25.41
2022-08-19T07:10:26.157Z,25.44
2022-08-19T07:12:53.611Z,25.43
2022-08-19T07:15:22.313Z,25.43
2022-08-19T07:17:52.731Z,25.44
2022-08-19T07:20:20.725Z,25.50
2022-08-19T07:22:49.530Z,25.59
2022-08-19T07:25:18.835Z,25.65
2022-08-19T07:27:48.716Z,25.75
2022-08-19T07:30:23.324Z,25.85
2022-08-19T07:32:53.982Z,25.95
2022-08-19T07:35:21.503Z,26.05
2022-08-19T07:37:50.367Z,26.20
2022-08-19T07:40:17.847Z,26.52
2022-08-19T07:42:45.496Z,27.20
2022-08-19T07:45:12.917Z,27.67
2022-08-19T07:47:50.120Z,28.05
2022-08-19T07:50:21.431Z,28.66
2022-08-19T07:52:51.051Z,29.24
2022-08-19T07:55:42.056Z,29.92
2022-08-19T07:58:13.189Z,30.68
2022-08-19T08:00:41.674Z,31.32
2022-08-19T08:03:09.694Z,31.85
2022-08-19T08:05:55.498Z,32.24
2022-08-19T08:08:44.369Z,32.89
2022-08-19T08:11:22.002Z,33.93
2022-08-19T08:14:00.521Z,35.14
2022-08-19T08:16:34.659Z,35.66
2022-08-19T08:19:02.254Z,35.43
2022-08-19T08:21:29.856Z,34.98
2022-08-19T08:26:31.031Z,34.27
2022-08-19T08:29:02.402Z,33.91
2022-08-19T08:31:41.797Z,33.79
2022-08-19T08:34:10.291Z,33.87
2022-08-19T08:36:42.615Z,33.99
2022-08-19T08:39:12.895Z,33.85
2022-08-19T08:41:51.814Z,33.67
2022-08-19T08:44:24.844Z,33.55
2022-08-19T08:46:59.106Z,33.78
2022-08-19T08:49:40.485Z,34.24
2022-08-19T08:52:14.707Z,34.72
2022-08-19T08:54:49.172Z,35.03
2022-08-19T08:57:33.729Z,35.87
2022-08-19T09:00:16.179Z,36.98
2022-08-19T09:02:44.489Z,37.85
2022-08-19T09:05:16.741Z,38.50
2022-08-19T09:07:57.059Z,39.40
2022-08-19T09:10:44.504Z,39.98
2022-08-19T09:13:37.661Z,40.75
2022-08-19T09:16:11.068Z,41.62
2022-08-19T09:18:44.500Z,41.96
2022-08-19T09:21:12.110Z,42.02
2022-08-19T09:23:39.914Z,42.09
2022-08-19T09:26:16.555Z,41.91
2022-08-19T09:28:48.284Z,41.55
2022-08-19T09:31:25.025Z,40.86
2022-08-19T09:33:57.903Z,40.20
2022-08-19T09:36:34.858Z,39.84
2022-08-19T09:39:04.517Z,39.71
2022-08-19T09:41:47.275Z,39.88
2022-08-19T09:44:15.110Z,40.09
2022-08-19T09:46:42.833Z,40.18
2022-08-19T09:49:10.495Z,40.42
2022-08-19T09:51:37.918Z,40.89
2022-08-19T09:54:07.141Z,41.74
2022-08-19T09:56:38.818Z,42.56
2022-08-19T09:59:13.051Z,42.99
2022-08-19T10:01:40.419Z,43.69
2022-08-19T10:04:20.267Z,44.57
2022-08-19T10:06:53.930Z,45.27
2022-08-19T10:09:33.848Z,45.88
2022-08-19T10:12:03.951Z,46.38
2022-08-19T10:14:33.196Z,46.76
2022-08-19T10:17:17.999Z,46.95
2022-08-19T10:19:55.248Z,47.02
2022-08-19T10:22:25.439Z,47.05
2022-08-19T10:24:53.542Z,47.01
2022-08-19T10:27:21.050Z,46.92
2022-08-19T10:29:49.917Z,46.83
2022-08-19T10:32:17.316Z,46.99
2022-08-19T10:34:48.597Z,47.22
2022-08-19T10:37:23.654Z,47.44
2022-08-19T10:39:56.251Z,46.63
2022-08-19T10:42:23.799Z,45.36
2022-08-19T10:44:52.614Z,43.89
2022-08-19T10:47:26.086Z,42.35
2022-08-19T10:50:34.357Z,40.81
2022-08-19T10:53:08.040Z,39.24
2022-08-19T10:55:56.368Z,38.25
2022-08-19T10:58:27.324Z,37.34
2022-08-19T11:00:59.317Z,36.57
2022-08-19T11:03:31.620Z,35.93
2022-08-19T11:06:01.036Z,35.45
2022-08-19T11:08:28.840Z,35.08
2022-08-19T11:11:01.615Z,34.91
2022-08-19T11:13:30.275Z,34.83
2022-08-19T11:16:05.316Z,35.02
2022-08-19T11:18:39.777Z,35.37
2022-08-19T11:21:10.527Z,35.66
2022-08-19T11:23:38.368Z,35.63
2022-08-19T11:26:06.131Z,35.51
2022-08-19T11:28:33.957Z,35.27
2022-08-19T11:31:04.348Z,35.02
2022-08-19T11:33:32.554Z,34.76
2022-08-19T11:36:01.703Z,34.57
2022-08-19T11:38:29.388Z,34.41
2022-08-19T11:40:58.585Z,34.24
2022-08-19T11:43:27.546Z,34.09
2022-08-19T11:45:55.334Z,33.97
2022-08-19T11:48:25.608Z,33.89
2022-08-19T11:50:57.567Z,33.81
2022-08-19T11:53:26.162Z,33.84
2022-08-19T11:55:56.808Z,33.91
2022-08-19T11:58:25.772Z,33.99
2022-08-19T12:00:54.002Z,34.15
2022-08-19T12:03:26.426Z,34.16
2022-08-19T12:05:54.669Z,34.12
2022-08-19T12:08:22.028Z,33.95
2022-08-19T12:10:49.427Z,33.76
2022-08-19T12:13:19.536Z,33.70
2022-08-19T12:15:48.488Z,33.72
2022-08-19T12:18:16.169Z,33.68
2022-08-19T12:20:46.744Z,33.62
2022-08-19T12:23:14.642Z,33.53
2022-08-19T12:25:51.100Z,33.42
2022-08-19T12:28:19.970Z,33.28
2022-08-19T12:30:48.029Z,33.19
2022-08-19T12:33:16.039Z,33.10
2022-08-19T12:35:48.000Z,33.05
2022-08-19T12:38:15.898Z,32.99
2022-08-19T12:40:47.857Z,32.95
2022-08-19T12:43:16.666Z,32.96
2022-08-19T12:45:44.581Z,32.95
2022-08-19T12:48:33.282Z,32.94
2022-08-19T12:51:09.424Z,32.92
2022-08-19T12:53:39.310Z,32.99
2022-08-19T12:56:12.162Z,33.11
2022-08-19T12:58:48.720Z,33.23
2022-08-19T13:01:21.924Z,33.37
2022-08-19T13:03:53.528Z,33.42
2022-08-19T13:06:22.545Z,33.48
2022-08-19T13:08:49.955Z,33.51
2022-08-19T13:11:20.208Z,33.57
2022-08-19T13:13:51.900Z,33.56
2022-08-19T13:16:21.263Z,33.59
2022-08-19T13:18:49.417Z,33.85
2022-08-19T13:21:17.065Z,34.66
2022-08-19T13:23:45.757Z,35.20
2022-08-19T13:26:14.696Z,35.26
2022-08-19T13:29:02.285Z,35.16
2022-08-19T13:31:51.999Z,34.99
2022-08-19T13:34:28.612Z,34.76
2022-08-19T13:36:59.166Z,34.61
2022-08-19T13:39:28.423Z,34.45
2022-08-19T13:41:56.027Z,34.30
2022-08-19T13:44:23.599Z,34.23
2022-08-19T13:46:53.900Z,34.15
2022-08-19T13:49:21.749Z,34.20
2022-08-19T13:51:49.363Z,34.14
2022-08-19T13:54:16.776Z,34.11
2022-08-19T13:56:47.019Z,34.34
2022-08-19T13:59:14.802Z,34.67
2022-08-19T14:01:42.823Z,34.92
2022-08-19T14:04:10.574Z,35.30
2022-08-19T14:06:37.975Z,35.68
2022-08-19T14:09:06.830Z,36.20
2022-08-19T14:11:34.337Z,36.44
2022-08-19T14:14:03.048Z,36.34
2022-08-19T14:16:31.444Z,36.10
2022-08-19T14:18:58.944Z,35.95
2022-08-19T14:21:26.950Z,35.77
2022-08-19T14:23:55.493Z,35.54
2022-08-19T14:26:23.962Z,35.28
2022-08-19T14:28:53.154Z,35.15
2022-08-19T14:31:28.967Z,35.03
2022-08-19T14:33:58.141Z,34.95
2022-08-19T14:36:25.456Z,34.86
2022-08-19T14:38:52.846Z,34.75
2022-08-19T14:41:24.556Z,34.58
2022-08-19T14:43:54.375Z,34.44
2022-08-19T14:46:28.244Z,34.26
2022-08-19T14:48:57.734Z,34.16
2022-08-19T14:51:28.207Z,34.08
2022-08-19T14:53:56.189Z,34.09
2022-08-19T14:56:27.163Z,34.24
2022-08-19T14:58:55.405Z,34.30
2022-08-19T15:01:24.570Z,34.29
2022-08-19T15:03:55.600Z,34.25
2022-08-19T15:06:24.149Z,34.21
2022-08-19T15:08:52.768Z,34.17
2022-08-19T15:11:23.649Z,34.13
2022-08-19T15:13:52.022Z,34.07
2022-08-19T15:16:20.483Z,34.01
2022-08-19T15:18:54.581Z,33.93
2022-08-19T15:21:26.967Z,33.87
2022-08-19T15:23:56.710Z,33.82
2022-08-19T15:26:26.136Z,33.81
2022-08-19T15:28:53.505Z,33.75
2022-08-19T15:31:25.621Z,33.68
2022-08-19T15:33:58.608Z,33.61
2022-08-19T15:36:27.182Z,33.51
2022-08-19T15:38:55.655Z,33.46
2022-08-19T15:41:31.272Z,33.40
2022-08-19T15:44:08.102Z,33.43
2022-08-19T15:46:38.139Z,33.48
2022-08-19T15:49:09.596Z,33.56
2022-08-19T15:51:39.240Z,33.69
2022-08-19T15:54:11.336Z,33.67
2022-08-19T15:57:05.652Z,33.63
2022-08-19T16:00:09.491Z,33.55
2022-08-19T16:02:57.522Z,33.49
2022-08-19T16:05:46.655Z,33.43
2022-08-19T16:08:15.511Z,33.36
2022-08-19T16:10:42.931Z,33.34
2022-08-19T16:13:11.002Z,33.32
2022-08-19T16:15:41.361Z,33.30
2022-08-19T16:18:08.683Z,33.32
2022-08-19T16:20:37.432Z,33.38
2022-08-19T16:23:05.212Z,33.38
2022-08-19T16:25:32.817Z,33.39
2022-08-19T16:28:07.334Z,33.37
2022-08-19T16:30:37.454Z,33.40
2022-08-19T16:33:05.451Z,33.47
2022-08-19T16:35:32.835Z,33.54
2022-08-19T16:38:02.676Z,33.60
2022-08-19T16:40:30.235Z,33.55
2022-08-19T16:42:57.776Z,33.51
2022-08-19T16:45:25.525Z,33.41
2022-08-19T16:47:52.891Z,33.34
2022-08-19T16:50:39.265Z,33.29
2022-08-19T16:53:11.519Z,33.32
2022-08-19T16:55:38.866Z,33.42
2022-08-19T16:58:06.126Z,33.53
2022-08-19T17:00:33.661Z,33.67
2022-08-19T17:03:07.371Z,33.77
2022-08-19T17:05:34.748Z,33.79
2022-08-19T17:08:02.218Z,33.80
2022-08-19T17:10:30.957Z,33.80
2022-08-19T17:12:58.295Z,33.79
2022-08-19T17:15:26.017Z,33.75
2022-08-19T17:17:53.534Z,33.68
2022-08-19T17:20:21.464Z,33.62
2022-08-19T17:22:48.754Z,33.51
2022-08-19T17:25:16.258Z,33.35
2022-08-19T17:27:44.998Z,33.23
2022-08-19T17:30:13.951Z,33.15
2022-08-19T17:32:42.246Z,33.08
2022-08-19T17:35:10.358Z,32.98
2022-08-19T17:37:38.227Z,32.82
2022-08-19T17:40:08.868Z,32.66
2022-08-19T17:42:36.802Z,32.55
2022-08-19T17:45:09.019Z,32.41
2022-08-19T17:47:37.616Z,32.28
2022-08-19T17:50:07.125Z,32.17
2022-08-19T17:52:35.574Z,32.06
2022-08-19T17:55:03.548Z,31.98
2022-08-19T17:57:30.949Z,31.89
2022-08-19T17:59:58.690Z,31.78
2022-08-19T18:02:27.950Z,31.68
2022-08-19T18:04:57.316Z,31.55
2022-08-19T18:07:24.596Z,31.44
2022-08-19T18:09:53.997Z,31.35
2022-08-19T18:12:29.217Z,31.25
2022-08-19T18:14:58.878Z,31.18
2022-08-19T18:17:28.059Z,31.13
2022-08-19T18:19:55.536Z,31.06
2022-08-19T18:22:28.341Z,30.99
2022-08-19T18:24:58.225Z,30.94
2022-08-19T18:27:27.657Z,30.88
2022-08-19T18:29:59.631Z,30.81
2022-08-19T18:32:34.640Z,30.75
2022-08-19T18:35:04.980Z,30.73
2022-08-19T18:37:32.840Z,30.70
2022-08-19T18:40:18.915Z,30.69
2022-08-19T18:43:05.363Z,30.62
2022-08-19T18:45:51.956Z,30.56
2022-08-19T18:48:39.158Z,30.48
2022-08-19T18:51:07.375Z,30.37
2022-08-19T18:53:38.661Z,30.29
2022-08-19T18:56:08.061Z,30.23
2022-08-19T18:58:38.078Z,30.17
2022-08-19T19:01:11.627Z,30.07
2022-08-19T19:03:45.747Z,30.00
2022-08-19T19:06:14.318Z,29.93
2022-08-19T19:08:41.778Z,29.86
2022-08-19T19:11:09.585Z,29.80
2022-08-19T19:13:39.902Z,29.74
2022-08-19T19:16:11.549Z,29.71
2022-08-19T19:18:40.726Z,29.66
2022-08-19T19:21:09.684Z,29.62
2022-08-19T19:23:40.749Z,29.58
2022-08-19T19:26:10.531Z,29.58
2022-08-19T19:28:45.739Z,29.56
2022-08-19T19:31:19.034Z,29.53
2022-08-19T19:33:47.841Z,29.49
2022-08-19T19:36:16.028Z,29.47
2022-08-19T19:38:48.310Z,29.42
2022-08-19T19:41:24.116Z,29.40
2022-08-19T19:44:09.917Z,29.40
2022-08-19T19:46:42.657Z,29.42
2022-08-19T19:49:12.988Z,29.42
2022-08-19T19:51:41.465Z,29.41
2022-08-19T19:54:18.673Z,29.36
2022-08-19T19:56:50.426Z,29.30
2022-08-19T19:59:18.210Z,29.26
2022-08-19T20:01:51.246Z,29.18
2022-08-19T20:04:23.327Z,29.11
2022-08-19T20:06:50.631Z,29.06
2022-08-19T20:09:19.934Z,29.01
2022-08-19T20:11:53.358Z,28.96
2022-08-19T20:14:24.564Z,28.90
2022-08-19T20:16:54.374Z,28.83
2022-08-19T20:19:26.973Z,28.79
2022-08-19T20:21:57.336Z,28.74
2022-08-19T20:24:29.919Z,28.70
2022-08-19T20:26:57.319Z,28.67
2022-08-19T20:29:38.863Z,28.65
2022-08-19T20:32:09.667Z,28.62
2022-08-19T20:34:39.262Z,28.61
2022-08-19T20:37:09.166Z,28.61
2022-08-19T20:39:37.497Z,28.61
2022-08-19T20:42:05.709Z,28.61
2022-08-19T20:44:33.193Z,28.59
2022-08-19T20:47:03.651Z,28.60
2022-08-19T20:49:32.115Z,28.62
2022-08-19T20:52:01.103Z,28.62
2022-08-19T20:54:28.628Z,28.62
2022-08-19T20:56:56.312Z,28.62
2022-08-19T20:59:25.893Z,28.59
2022-08-19T21:01:54.713Z,28.60
2022-08-19T21:04:22.584Z,28.59
2022-08-19T21:06:50.719Z,28.60
2022-08-19T21:09:19.421Z,28.61
2022-08-19T21:11:47.122Z,28.62
2022-08-19T21:14:14.793Z,28.59
2022-08-19T21:16:42.355Z,28.58
2022-08-19T21:19:09.848Z,28.59
2022-08-19T21:21:37.255Z,28.61
2022-08-19T21:24:05.219Z,28.59
2022-08-19T21:26:34.207Z,28.57
2022-08-19T21:29:01.607Z,28.53
2022-08-19T21:31:29.193Z,28.51
2022-08-19T21:33:56.584Z,28.50
2022-08-19T21:36:24.260Z,28.48
2022-08-19T21:38:51.674Z,28.49
2022-08-19T21:41:19.062Z,28.50
2022-08-19T21:43:48.103Z,28.53
2022-08-19T21:46:16.278Z,28.51
2022-08-19T21:48:43.734Z,28.49
2022-08-19T21:51:11.157Z,28.48
2022-08-19T21:53:38.799Z,28.48
2022-08-19T21:56:07.309Z,28.47
2022-08-19T21:58:38.656Z,28.48
2022-08-19T22:01:08.090Z,28.47
2022-08-19T22:03:37.660Z,28.46
2022-08-19T22:06:05.756Z,28.48
2022-08-19T22:08:33.206Z,28.52
2022-08-19T22:11:01.332Z,28.57
2022-08-19T22:13:31.058Z,28.60
2022-08-19T22:15:58.432Z,28.60
2022-08-19T22:18:28.162Z,28.61
2022-08-19T22:20:56.694Z,28.61
2022-08-19T22:23:24.115Z,28.59
2022-08-19T22:25:51.454Z,28.58
2022-08-19T22:28:28.190Z,28.53
2022-08-19T22:30:56.226Z,28.51
2022-08-19T22:33:25.736Z,28.50
2022-08-19T22:35:54.650Z,28.48
2022-08-19T22:38:22.997Z,28.45
2022-08-19T22:40:52.893Z,28.41
2022-08-19T22:43:24.652Z,28.35
2022-08-19T22:45:54.779Z,28.28
2022-08-19T22:48:25.737Z,28.21
2022-08-19T22:51:18.453Z,28.11
2022-08-19T22:53:47.586Z,28.00
2022-08-19T22:56:18.493Z,27.89
2022-08-19T22:58:50.259Z,27.81
2022-08-19T23:01:27.623Z,27.73
2022-08-19T23:03:59.818Z,27.67
2022-08-19T23:06:33.118Z,27.64
2022-08-19T23:09:04.755Z,27.65
2022-08-19T23:11:35.627Z,27.64
2022-08-19T23:14:06.642Z,27.65
2022-08-19T23:16:36.254Z,27.68
2022-08-19T23:19:04.202Z,27.70
2022-08-19T23:21:35.302Z,27.73
2022-08-19T23:24:03.250Z,27.73
2022-08-19T23:26:35.153Z,27.73
2022-08-19T23:29:23.219Z,27.70
2022-08-19T23:31:50.810Z,27.61
2022-08-19T23:34:18.279Z,27.56
2022-08-19T23:36:48.409Z,27.53
2022-08-19T23:39:15.738Z,27.49
2022-08-19T23:41:43.190Z,27.49
2022-08-19T23:44:14.510Z,27.51
2022-08-19T23:46:54.568Z,27.55
2022-08-19T23:49:25.023Z,27.59
2022-08-19T23:51:55.573Z,27.62
2022-08-19T23:54:34.279Z,27.64
2022-08-19T23:57:13.513Z,27.64
2022-08-19T23:59:45.428Z,27.63
